createdAt,value
2018-12-04T00:01:13.787Z,11.20
2018-12-04T00:03:43.228Z,11.10
2018-12-04T00:06:12.689Z,11.10
2018-12-04T00:09:20.395Z,11.00
2018-12-04T00:11:48.580Z,11.00
2018-12-04T00:14:17.288Z,11.00
2018-12-04T00:16:45.554Z,10.90
2018-12-04T00:19:13.744Z,10.90
2018-12-04T00:21:41.903Z,10.90
2018-12-04T00:24:10.111Z,10.90
2018-12-04T00:26:38.286Z,10.80
2018-12-04T00:29:06.449Z,10.60
2018-12-04T00:31:34.785Z,10.60
2018-12-04T00:34:02.943Z,10.50
2018-12-04T00:36:31.105Z,10.40
2018-12-04T00:38:59.294Z,10.40
2018-12-04T00:41:27.562Z,10.20
2018-12-04T00:43:55.807Z,10.10
2018-12-04T00:46:24.018Z,9.90
2018-12-04T00:48:52.192Z,9.80
2018-12-04T00:51:20.379Z,9.80
2018-12-04T00:53:48.541Z,9.80
2018-12-04T00:56:16.717Z,9.80
2018-12-04T00:58:44.897Z,9.70
2018-12-04T01:01:13.090Z,9.60
2018-12-04T01:03:41.262Z,9.60
2018-12-04T01:06:09.444Z,9.60
2018-12-04T01:08:37.604Z,9.60
2018-12-04T01:11:05.769Z,9.60
2018-12-04T01:13:33.954Z,9.60
2018-12-04T01:16:02.132Z,9.60
2018-12-04T01:18:30.417Z,9.60
2018-12-04T01:20:58.862Z,9.60
2018-12-04T01:23:27.036Z,9.50
2018-12-04T01:25:55.320Z,9.50
2018-12-04T01:28:23.583Z,9.40
2018-12-04T01:30:51.760Z,9.40
2018-12-04T01:33:19.907Z,9.40
2018-12-04T01:35:48.185Z,9.40
2018-12-04T01:38:16.353Z,9.40
2018-12-04T01:40:44.528Z,9.30
2018-12-04T01:43:12.794Z,9.30
2018-12-04T01:45:40.951Z,9.30
2018-12-04T01:48:09.112Z,9.20
2018-12-04T01:50:37.290Z,9.20
2018-12-04T01:53:05.605Z,9.20
2018-12-04T01:55:33.747Z,9.20
2018-12-04T01:58:01.923Z,9.20
2018-12-04T02:00:30.191Z,9.10
2018-12-04T02:02:58.380Z,9.10
2018-12-04T02:05:26.542Z,9.10
2018-12-04T02:07:54.727Z,9.00
2018-12-04T02:10:22.910Z,9.00
2018-12-04T02:12:51.236Z,9.00
2018-12-04T02:15:19.411Z,9.00
2018-12-04T02:17:47.687Z,9.00
2018-12-04T02:20:16.122Z,9.00
2018-12-04T02:22:44.278Z,8.90
2018-12-04T02:25:12.431Z,9.00
2018-12-04T02:27:40.619Z,9.00
2018-12-04T02:30:09.173Z,9.00
2018-12-04T02:32:37.324Z,9.00
2018-12-04T02:35:05.708Z,9.00
2018-12-04T02:37:33.883Z,8.90
2018-12-04T02:40:02.053Z,8.90
2018-12-04T02:42:30.351Z,8.90
2018-12-04T02:44:58.515Z,8.90
2018-12-04T02:47:26.664Z,8.90
2018-12-04T02:49:54.832Z,8.90
2018-12-04T02:52:22.972Z,8.90
2018-12-04T02:54:51.148Z,8.90
2018-12-04T02:57:19.327Z,8.90
2018-12-04T02:59:47.628Z,8.90
2018-12-04T03:02:15.778Z,8.90
2018-12-04T03:04:44.064Z,8.80
2018-12-04T03:07:12.254Z,8.70
2018-12-04T03:09:40.464Z,8.70
2018-12-04T03:12:08.676Z,8.60
2018-12-04T03:14:36.846Z,8.60
2018-12-04T03:17:05.098Z,8.60
2018-12-04T03:19:33.314Z,8.60
2018-12-04T03:22:01.458Z,8.50
2018-12-04T03:24:29.619Z,8.50
2018-12-04T03:26:57.912Z,8.60
2018-12-04T03:29:26.208Z,8.60
2018-12-04T03:31:54.414Z,8.60
2018-12-04T03:34:22.741Z,8.60
2018-12-04T03:36:51.027Z,8.60
2018-12-04T03:39:19.198Z,8.60
2018-12-04T03:41:47.450Z,8.60
2018-12-04T03:44:15.845Z,8.50
2018-12-04T03:46:44.079Z,8.50
2018-12-04T03:49:12.328Z,8.50
2018-12-04T03:51:40.522Z,8.50
2018-12-04T03:54:08.735Z,8.50
2018-12-04T03:56:36.971Z,8.50
2018-12-04T03:59:05.245Z,8.50
2018-12-04T04:01:33.488Z,8.50
2018-12-04T04:04:02.206Z,8.50
2018-12-04T04:06:30.469Z,8.50
2018-12-04T04:08:58.660Z,8.50
2018-12-04T04:11:26.887Z,8.40
2018-12-04T04:13:55.075Z,8.40
2018-12-04T04:16:23.431Z,8.40
2018-12-04T04:18:51.993Z,8.40
2018-12-04T04:21:20.155Z,8.40
2018-12-04T04:23:48.320Z,8.40
2018-12-04T04:26:16.499Z,8.40
2018-12-04T04:28:44.671Z,8.50
2018-12-04T04:31:12.835Z,8.50
2018-12-04T04:33:41.019Z,8.50
2018-12-04T04:36:09.257Z,8.50
2018-12-04T04:38:37.442Z,8.50
2018-12-04T04:41:05.670Z,8.50
2018-12-04T04:43:33.926Z,8.50
2018-12-04T04:46:02.125Z,8.50
2018-12-04T04:48:30.392Z,8.60
2018-12-04T04:50:58.570Z,8.60
2018-12-04T04:53:26.967Z,8.50
2018-12-04T04:55:55.153Z,8.50
2018-12-04T04:58:23.336Z,8.50
2018-12-04T05:00:51.542Z,8.50
2018-12-04T05:03:19.828Z,8.50
2018-12-04T05:05:48.010Z,8.50
2018-12-04T05:08:16.288Z,8.50
2018-12-04T05:10:44.530Z,8.50
2018-12-04T05:13:12.721Z,8.50
2018-12-04T05:15:40.885Z,8.50
2018-12-04T05:18:09.332Z,8.50
2018-12-04T05:20:37.646Z,8.50
2018-12-04T05:23:05.857Z,8.50
2018-12-04T05:25:34.019Z,8.50
2018-12-04T05:28:02.290Z,8.50
2018-12-04T05:30:30.486Z,8.50
2018-12-04T05:32:58.731Z,8.50
2018-12-04T05:35:26.899Z,8.40
2018-12-04T05:37:55.083Z,8.40
2018-12-04T05:40:23.687Z,8.50
2018-12-04T05:42:51.835Z,8.40
2018-12-04T05:45:20.005Z,8.50
2018-12-04T05:47:48.445Z,8.50
2018-12-04T05:50:17.078Z,8.40
2018-12-04T05:52:51.781Z,8.40
2018-12-04T05:55:19.927Z,8.40
2018-12-04T05:57:48.106Z,8.40
2018-12-04T06:00:16.312Z,8.40
2018-12-04T06:02:44.496Z,8.40
2018-12-04T06:05:12.709Z,8.40
2018-12-04T06:07:40.916Z,8.40
2018-12-04T06:10:09.774Z,8.40
2018-12-04T06:12:37.956Z,8.40
2018-12-04T06:15:06.655Z,8.40
2018-12-04T06:17:35.236Z,8.40
2018-12-04T06:20:03.723Z,8.30
2018-12-04T06:22:31.880Z,8.40
2018-12-04T06:25:00.142Z,8.40
2018-12-04T06:27:28.327Z,8.30
2018-12-04T06:29:56.484Z,8.30
2018-12-04T06:32:25.098Z,8.30
2018-12-04T06:34:53.264Z,8.30
2018-12-04T06:37:21.525Z,8.20
2018-12-04T06:39:49.734Z,8.20
2018-12-04T06:42:17.929Z,8.20
2018-12-04T06:44:46.882Z,8.10
2018-12-04T06:47:17.347Z,8.00
2018-12-04T06:49:45.636Z,8.00
2018-12-04T06:52:13.793Z,8.00
2018-12-04T06:54:42.011Z,8.00
2018-12-04T06:57:10.223Z,8.00
2018-12-04T06:59:45.052Z,8.00
2018-12-04T07:02:13.254Z,8.00
2018-12-04T07:04:41.472Z,8.00
2018-12-04T07:07:09.696Z,7.90
2018-12-04T07:09:37.923Z,8.00
2018-12-04T07:12:07.962Z,8.00
2018-12-04T07:14:36.355Z,7.90
2018-12-04T07:17:04.533Z,7.90
2018-12-04T07:19:32.710Z,7.90
2018-12-04T07:22:02.407Z,7.90
2018-12-04T07:24:30.587Z,7.90
2018-12-04T07:26:58.779Z,7.90
2018-12-04T07:29:27.522Z,7.80
2018-12-04T07:31:55.953Z,7.80
2018-12-04T07:34:24.202Z,7.80
2018-12-04T07:36:52.425Z,7.80
2018-12-04T07:39:20.683Z,7.80
2018-12-04T07:41:49.088Z,7.90
2018-12-04T07:44:17.280Z,7.90
2018-12-04T07:46:45.554Z,7.90
2018-12-04T07:49:13.785Z,7.90
2018-12-04T07:51:42.052Z,7.90
2018-12-04T07:54:10.231Z,7.90
2018-12-04T07:56:39.142Z,7.90
2018-12-04T07:59:07.315Z,7.90
2018-12-04T08:01:35.540Z,7.90
2018-12-04T08:04:04.419Z,7.90
2018-12-04T08:06:32.607Z,8.00
2018-12-04T08:09:00.923Z,8.00
2018-12-04T08:11:29.123Z,8.00
2018-12-04T08:13:57.334Z,7.90
2018-12-04T08:16:25.517Z,8.00
2018-12-04T08:18:53.832Z,8.10
2018-12-04T08:21:22.113Z,8.10
2018-12-04T08:23:50.335Z,8.00
2018-12-04T08:26:19.030Z,8.00
2018-12-04T08:28:47.298Z,8.00
2018-12-04T08:31:15.510Z,8.10
2018-12-04T08:33:44.387Z,8.20
2018-12-04T08:36:12.805Z,8.20
2018-12-04T08:38:40.934Z,8.30
2018-12-04T08:41:10.163Z,8.30
2018-12-04T08:43:38.332Z,8.30
2018-12-04T08:46:08.805Z,8.20
2018-12-04T08:48:37.676Z,8.20
2018-12-04T08:51:05.888Z,8.00
2018-12-04T08:53:34.099Z,8.10
2018-12-04T08:56:03.170Z,8.10
2018-12-04T08:58:31.575Z,8.10
2018-12-04T09:01:01.467Z,8.20
2018-12-04T09:03:30.239Z,8.20
2018-12-04T09:05:58.434Z,8.30
2018-12-04T09:08:27.952Z,8.30
2018-12-04T09:10:56.211Z,8.40
2018-12-04T09:13:24.765Z,8.30
2018-12-04T09:15:59.574Z,8.30
2018-12-04T09:18:27.852Z,8.40
2018-12-04T09:20:56.537Z,8.30
2018-12-04T09:23:25.168Z,8.30
2018-12-04T09:25:53.474Z,8.30
2018-12-04T09:28:21.881Z,8.40
2018-12-04T09:30:50.486Z,8.40
2018-12-04T09:33:18.734Z,8.40
2018-12-04T09:35:47.072Z,8.50
2018-12-04T09:38:17.358Z,8.50
2018-12-04T09:40:45.602Z,8.50
2018-12-04T09:43:13.885Z,8.30
2018-12-04T09:45:43.040Z,8.20
2018-12-04T09:48:11.463Z,8.10
2018-12-04T09:50:39.696Z,8.10
2018-12-04T09:53:08.322Z,8.00
2018-12-04T09:55:36.522Z,8.00
2018-12-04T09:58:05.083Z,7.90
2018-12-04T10:00:33.218Z,7.90
2018-12-04T10:03:01.449Z,7.90
2018-12-04T10:05:29.835Z,7.90
2018-12-04T10:07:58.099Z,8.00
2018-12-04T10:10:26.258Z,8.10
2018-12-04T10:12:54.465Z,8.10
2018-12-04T10:15:22.764Z,8.20
2018-12-04T10:17:50.982Z,8.20
2018-12-04T10:20:19.222Z,8.30
2018-12-04T10:25:21.199Z,8.40
2018-12-04T10:27:49.394Z,8.50
2018-12-04T10:30:18.751Z,8.60
2018-12-04T10:32:51.146Z,8.60
2018-12-04T10:35:20.152Z,8.80
2018-12-04T10:37:48.399Z,8.90
2018-12-04T10:40:16.652Z,8.90
2018-12-04T10:42:44.818Z,8.80
2018-12-04T10:45:13.408Z,8.80
2018-12-04T10:47:41.680Z,8.70
2018-12-04T10:50:09.915Z,8.80
2018-12-04T10:52:38.219Z,8.60
2018-12-04T10:55:06.571Z,8.60
2018-12-04T10:57:34.844Z,8.60
2018-12-04T11:00:05.943Z,8.60
2018-12-04T11:02:38.714Z,8.60
2018-12-04T11:05:06.983Z,8.60
2018-12-04T11:07:35.169Z,8.50
2018-12-04T11:10:03.999Z,8.50
2018-12-04T11:12:32.188Z,8.40
2018-12-04T11:15:00.371Z,8.40
2018-12-04T11:17:28.594Z,8.40
2018-12-04T11:19:58.810Z,8.40
2018-12-04T11:22:27.298Z,8.40
2018-12-04T11:24:55.679Z,8.40
2018-12-04T11:27:23.862Z,8.40
2018-12-04T11:29:53.031Z,8.40
2018-12-04T11:32:21.195Z,8.40
2018-12-04T11:34:49.352Z,8.30
2018-12-04T11:37:17.558Z,8.30
2018-12-04T11:39:46.033Z,8.30
2018-12-04T11:42:14.312Z,8.30
2018-12-04T11:44:42.473Z,8.10
2018-12-04T11:47:10.676Z,8.20
2018-12-04T11:49:38.851Z,8.20
2018-12-04T11:52:07.077Z,8.10
2018-12-04T11:54:35.288Z,8.20
2018-12-04T11:57:03.535Z,8.20
2018-12-04T11:59:31.856Z,8.20
2018-12-04T12:02:00.290Z,8.30
2018-12-04T12:04:28.534Z,8.40
2018-12-04T12:06:56.715Z,8.40
2018-12-04T12:09:24.888Z,8.40
2018-12-04T12:11:53.568Z,8.40
2018-12-04T12:14:22.149Z,8.30
2018-12-04T12:16:50.448Z,8.40
2018-12-04T12:19:18.736Z,8.30
2018-12-04T12:21:46.899Z,8.40
2018-12-04T12:24:15.186Z,8.30
2018-12-04T12:26:43.387Z,8.30
2018-12-04T12:29:11.835Z,8.40
2018-12-04T12:31:39.996Z,8.40
2018-12-04T12:34:09.107Z,8.50
2018-12-04T12:36:37.326Z,8.50
2018-12-04T12:39:07.561Z,8.50
2018-12-04T12:41:35.785Z,8.40
2018-12-04T12:44:05.207Z,8.40
2018-12-04T12:46:33.363Z,8.50
2018-12-04T12:49:01.947Z,8.60
2018-12-04T12:51:30.192Z,8.60
2018-12-04T12:53:58.375Z,8.70
2018-12-04T12:56:26.796Z,8.80
2018-12-04T12:58:55.456Z,8.80
2018-12-04T13:01:23.939Z,8.80
2018-12-04T13:03:52.115Z,8.80
2018-12-04T13:06:20.308Z,8.80
2018-12-04T13:08:48.793Z,8.80
2018-12-04T13:11:16.951Z,8.80
2018-12-04T13:13:45.163Z,8.90
2018-12-04T13:16:14.032Z,8.80
2018-12-04T13:21:17.038Z,8.80
2018-12-04T13:23:45.222Z,8.70
2018-12-04T13:26:13.418Z,8.70
2018-12-04T13:28:42.478Z,8.70
2018-12-04T13:31:10.789Z,8.60
2018-12-04T13:33:39.068Z,8.50
2018-12-04T13:36:07.516Z,8.50
2018-12-04T13:38:35.841Z,8.40
2018-12-04T13:41:04.106Z,8.30
2018-12-04T13:43:32.600Z,8.30
2018-12-04T13:46:00.886Z,8.30
2018-12-04T13:48:29.180Z,8.30
2018-12-04T13:50:57.811Z,8.30
2018-12-04T13:53:26.005Z,8.30
2018-12-04T13:55:54.265Z,8.30
2018-12-04T13:58:22.828Z,8.30
2018-12-04T14:00:51.120Z,8.20
2018-12-04T14:03:19.370Z,8.20
2018-12-04T14:05:47.850Z,8.20
2018-12-04T14:08:16.018Z,8.20
2018-12-04T14:10:44.280Z,8.10
2018-12-04T14:13:13.004Z,8.10
2018-12-04T14:15:41.372Z,8.00
2018-12-04T14:18:09.711Z,8.00
2018-12-04T14:20:38.124Z,7.90
2018-12-04T14:23:06.401Z,7.90
2018-12-04T14:25:41.335Z,7.80
2018-12-04T14:28:09.580Z,7.80
2018-12-04T14:30:37.743Z,7.70
2018-12-04T14:33:05.979Z,7.70
2018-12-04T14:35:34.148Z,7.70
2018-12-04T14:38:02.426Z,7.70
2018-12-04T14:40:31.087Z,7.70
2018-12-04T14:42:59.442Z,7.70
2018-12-04T14:45:27.670Z,7.70
2018-12-04T14:47:55.983Z,7.70
2018-12-04T14:50:24.148Z,7.70
2018-12-04T14:52:52.414Z,7.70
2018-12-04T14:55:20.877Z,7.70
2018-12-04T14:57:49.125Z,7.70
2018-12-04T15:00:17.495Z,7.70
2018-12-04T15:02:45.802Z,7.60
2018-12-04T15:05:14.181Z,7.70
2018-12-04T15:07:42.376Z,7.60
2018-12-04T15:10:11.058Z,7.60
2018-12-04T15:12:39.333Z,7.60
2018-12-04T15:15:08.302Z,7.60
2018-12-04T15:17:36.550Z,7.60
2018-12-04T15:20:05.814Z,7.50
2018-12-04T15:22:34.480Z,7.40
2018-12-04T15:25:02.900Z,7.40
2018-12-04T15:27:31.187Z,7.30
2018-12-04T15:29:59.868Z,7.30
2018-12-04T15:32:28.220Z,7.20
2018-12-04T15:34:56.483Z,7.20
2018-12-04T15:37:24.704Z,7.20
2018-12-04T15:39:53.059Z,7.20
2018-12-04T15:42:21.666Z,7.20
2018-12-04T15:44:49.911Z,7.20
2018-12-04T15:47:18.102Z,7.20
2018-12-04T15:49:46.268Z,7.10
2018-12-04T15:52:14.694Z,7.00
2018-12-04T15:54:42.974Z,6.80
2018-12-04T15:57:11.190Z,6.80
2018-12-04T15:59:39.710Z,6.70
2018-12-04T16:02:08.127Z,6.70
2018-12-04T16:04:36.298Z,6.60
2018-12-04T16:07:04.724Z,6.80
2018-12-04T16:09:32.899Z,6.80
2018-12-04T16:12:01.115Z,6.80
2018-12-04T16:14:29.339Z,6.80
2018-12-04T16:16:57.567Z,6.70
2018-12-04T16:19:25.934Z,6.70
2018-12-04T16:21:54.399Z,6.70
2018-12-04T16:24:22.688Z,6.70
2018-12-04T16:26:50.906Z,6.70
2018-12-04T16:29:19.478Z,6.70
2018-12-04T16:31:47.702Z,6.70
2018-12-04T16:34:15.998Z,6.60
2018-12-04T16:36:44.270Z,6.50
2018-12-04T16:39:12.432Z,6.50
2018-12-04T16:41:41.108Z,6.50
2018-12-04T16:44:09.256Z,6.50
2018-12-04T16:46:37.439Z,6.50
2018-12-04T16:49:05.702Z,6.50
2018-12-04T16:51:34.007Z,6.50
2018-12-04T16:54:02.730Z,6.40
2018-12-04T16:56:30.974Z,6.50
2018-12-04T16:58:59.224Z,6.50
2018-12-04T17:01:28.379Z,6.50
2018-12-04T17:03:56.569Z,6.40
2018-12-04T17:06:24.725Z,6.40
2018-12-04T17:08:52.913Z,6.40
2018-12-04T17:11:21.086Z,6.40
2018-12-04T17:13:49.296Z,6.40
2018-12-04T17:16:17.470Z,6.50
2018-12-04T17:18:45.662Z,6.40
2018-12-04T17:21:13.838Z,6.50
2018-12-04T17:23:42.041Z,6.40
2018-12-04T17:26:10.190Z,6.40
2018-12-04T17:28:38.406Z,6.40
2018-12-04T17:31:06.605Z,6.40
2018-12-04T17:33:34.979Z,6.40
2018-12-04T17:36:03.287Z,6.40
2018-12-04T17:38:31.444Z,6.30
2018-12-04T17:40:59.619Z,6.30
2018-12-04T17:43:28.414Z,6.20
2018-12-04T17:45:56.700Z,6.20
2018-12-04T17:48:24.975Z,6.30
2018-12-04T17:50:53.291Z,6.30
2018-12-04T17:53:21.529Z,6.30
2018-12-04T17:55:49.674Z,6.30
2018-12-04T17:58:18.698Z,6.30
2018-12-04T18:00:46.983Z,6.30
2018-12-04T18:03:15.147Z,6.20
2018-12-04T18:05:43.336Z,6.20
2018-12-04T18:08:11.507Z,6.20
2018-12-04T18:10:39.717Z,6.20
2018-12-04T18:13:07.954Z,6.10
2018-12-04T18:15:36.222Z,6.10
2018-12-04T18:18:04.552Z,6.00
2018-12-04T18:20:32.776Z,6.10
2018-12-04T18:23:01.007Z,6.10
2018-12-04T18:25:29.181Z,6.00
2018-12-04T18:27:57.523Z,6.00
2018-12-04T18:30:25.679Z,6.00
2018-12-04T18:32:53.911Z,6.10
2018-12-04T18:35:22.179Z,6.10
2018-12-04T18:37:50.340Z,6.10
2018-12-04T18:40:18.576Z,6.10
2018-12-04T18:42:46.709Z,6.10
2018-12-04T18:45:14.969Z,6.10
2018-12-04T18:47:43.166Z,6.10
2018-12-04T18:50:11.441Z,6.10
2018-12-04T18:52:40.708Z,6.10
2018-12-04T18:55:11.526Z,6.10
2018-12-04T18:57:39.911Z,6.10
2018-12-04T19:00:08.803Z,6.10
2018-12-04T19:02:37.263Z,6.00
2018-12-04T19:05:05.894Z,6.10
2018-12-04T19:07:34.144Z,6.00
2018-12-04T19:10:02.934Z,6.00
2018-12-04T19:12:31.110Z,6.00
2018-12-04T19:14:59.364Z,5.90
2018-12-04T19:17:27.667Z,5.90
2018-12-04T19:19:55.863Z,5.90
2018-12-04T19:22:24.131Z,5.90
2018-12-04T19:24:52.886Z,5.90
2018-12-04T19:27:21.071Z,5.80
2018-12-04T19:29:49.388Z,5.80
2018-12-04T19:32:17.682Z,5.80
2018-12-04T19:34:46.012Z,5.80
2018-12-04T19:37:14.224Z,5.80
2018-12-04T19:39:42.429Z,5.70
2018-12-04T19:42:11.357Z,5.70
2018-12-04T19:44:39.618Z,5.70
2018-12-04T19:47:07.805Z,5.60
2018-12-04T19:49:36.590Z,5.60
2018-12-04T19:52:04.838Z,5.50
2018-12-04T19:54:33.004Z,5.40
2018-12-04T19:57:01.623Z,5.40
2018-12-04T19:59:29.790Z,5.40
2018-12-04T20:01:57.949Z,5.30
2018-12-04T20:04:26.443Z,5.30
2018-12-04T20:06:54.685Z,5.30
2018-12-04T20:09:22.839Z,5.20
2018-12-04T20:11:51.106Z,5.20
2018-12-04T20:14:19.336Z,5.20
2018-12-04T20:16:47.495Z,5.10
2018-12-04T20:19:15.726Z,5.20
2018-12-04T20:21:44.008Z,5.20
2018-12-04T20:24:12.174Z,5.20
2018-12-04T20:26:40.428Z,5.20
2018-12-04T20:29:08.623Z,5.20
2018-12-04T20:31:36.776Z,5.30
2018-12-04T20:34:04.933Z,5.30
2018-12-04T20:36:33.355Z,5.20
2018-12-04T20:39:01.992Z,5.20
2018-12-04T20:41:30.233Z,5.10
2018-12-04T20:43:58.438Z,5.20
2018-12-04T20:46:26.674Z,5.20
2018-12-04T20:48:54.934Z,5.20
2018-12-04T20:51:23.297Z,5.30
2018-12-04T20:53:51.494Z,5.20
2018-12-04T20:56:19.751Z,5.20
2018-12-04T20:58:48.096Z,5.10
2018-12-04T21:01:24.616Z,5.00
2018-12-04T21:04:02.288Z,5.00
2018-12-04T21:06:30.915Z,4.90
2018-12-04T21:08:59.752Z,4.90
2018-12-04T21:11:28.028Z,4.90
2018-12-04T21:13:56.227Z,4.90
2018-12-04T21:16:24.383Z,4.90
2018-12-04T21:18:52.549Z,4.80
2018-12-04T21:21:20.822Z,4.80
2018-12-04T21:23:48.972Z,4.70
2018-12-04T21:26:17.265Z,4.70
2018-12-04T21:29:50.548Z,4.70
2018-12-04T21:32:24.305Z,4.70
2018-12-04T21:34:57.827Z,4.70
2018-12-04T21:37:31.375Z,4.70
2018-12-04T21:40:05.238Z,4.70
2018-12-04T21:42:38.998Z,4.70
2018-12-04T21:45:12.874Z,4.70
2018-12-04T21:47:46.394Z,4.70
2018-12-04T21:50:14.632Z,4.70
2018-12-04T21:52:42.822Z,4.80
2018-12-04T21:55:11.011Z,4.80
2018-12-04T21:57:39.263Z,4.80
2018-12-04T22:00:07.919Z,4.80
2018-12-04T22:02:36.154Z,4.80
2018-12-04T22:05:04.483Z,4.80
2018-12-04T22:07:32.849Z,4.70
2018-12-04T22:10:01.034Z,4.70
2018-12-04T22:12:29.208Z,4.70
2018-12-04T22:14:57.451Z,4.60
2018-12-04T22:17:25.625Z,4.60
2018-12-04T22:19:53.824Z,4.60
2018-12-04T22:22:22.102Z,4.60
2018-12-04T22:24:50.291Z,4.60
2018-12-04T22:27:18.448Z,4.60
2018-12-04T22:29:46.599Z,4.50
2018-12-04T22:32:14.863Z,4.50
2018-12-04T22:34:43.044Z,4.50
2018-12-04T22:37:11.172Z,4.50
2018-12-04T22:39:39.354Z,4.40
2018-12-04T22:42:07.645Z,4.40
2018-12-04T22:44:35.899Z,4.40
2018-12-04T22:47:04.341Z,4.40
2018-12-04T22:49:32.499Z,4.40
2018-12-04T22:52:00.885Z,4.50
2018-12-04T22:54:29.101Z,4.40
2018-12-04T22:56:57.239Z,4.40
2018-12-04T22:59:25.416Z,4.50
2018-12-04T23:01:53.610Z,4.40
2018-12-04T23:04:21.828Z,4.40
2018-12-04T23:06:50.071Z,4.40
2018-12-04T23:09:18.242Z,4.40
2018-12-04T23:11:47.070Z,4.40
2018-12-04T23:14:15.347Z,4.40
2018-12-04T23:16:43.520Z,4.40
2018-12-04T23:19:11.711Z,4.40
2018-12-04T23:21:40.004Z,4.40
2018-12-04T23:24:08.174Z,4.40
2018-12-04T23:26:36.355Z,4.30
2018-12-04T23:29:04.805Z,4.30
2018-12-04T23:31:33.087Z,4.20
2018-12-04T23:34:01.443Z,4.20
2018-12-04T23:36:29.695Z,4.20
2018-12-04T23:38:57.950Z,4.20
2018-12-04T23:41:26.115Z,4.10
2018-12-04T23:43:54.316Z,4.10
2018-12-04T23:46:22.618Z,4.10
2018-12-04T23:48:50.852Z,4.10
2018-12-04T23:51:19.103Z,4.00
2018-12-04T23:53:47.292Z,4.00
2018-12-04T23:56:15.474Z,3.90
2018-12-04T23:58:43.639Z,3.90
